Nao Victoria — ECHH — position and weather

sailwx.info

Track history (hours):
 
Tides and Currents Weather Stations Pressure Air Temp Water Temp Dewpoint Dewpoint Depression Visibility Wind Speed Wind Dir Waves Ship Positions

Nao Victoria

Last reported at 2017-May-29 11:31 UTC. Time now 2017-May-29 11:29 UTC.
Position N 51°14' E 002°55'.

Length 25 m; draft 3.2 m.

Type: Sailing vessel. MMSI: 224123770.

Date/timePositionNaut miles runAvg speedWind from/ knotsBaromVisibWave heightAir tempDewpointWater temp
2017-May-29 11:31N 51°14' E 002°55'0 0.0
2017-May-29 11:01N 51°14' E 002°55'0 0.0
2017-May-29 10:31N 51°14' E 002°55'  
2017-May-23 11:51N 51°14' E 002°55'0 0.2
2017-May-23 11:22N 51°14' E 002°55'0 0.4
2017-May-23 10:44N 51°14' E 002°55'0 0.8
2017-May-23 10:29N 51°14' E 002°55'2 4.3
2017-May-23 09:59N 51°16' E 002°53'2 5.0
2017-May-23 09:30N 51°18' E 002°51'2 4.5
2017-May-23 09:00N 51°20' E 002°49'3 5.9
2017-May-23 08:30N 51°20' E 002°45'3 5.6
2017-May-23 08:00N 51°21' E 002°40'3 5.1
2017-May-23 07:30N 51°21' E 002°36'1 2.3
2017-May-23 06:58N 51°21' E 002°34'0 0.8
2017-May-23 06:29N 51°21' E 002°34'2 3.3
2017-May-23 06:00N 51°22' E 002°31'2 3.3
2017-May-23 05:30N 51°21' E 002°29'2 3.4
2017-May-23 04:59N 51°21' E 002°26'2 3.6
2017-May-23 04:30N 51°20' E 002°24'2 4.0
2017-May-23 04:00N 51°19' E 002°21'2 4.3
2017-May-23 03:30N 51°17' E 002°18'3 4.4
2017-May-23 02:55N 51°16' E 002°15'4 5.4
2017-May-23 02:05N 51°14' E 002°09'1 6.1
2017-May-23 02:00N 51°13' E 002°08'3 6.0
2017-May-23 01:28N 51°12' E 002°04'3 6.0
2017-May-23 01:00N 51°10' E 002°00'5 6.7
2017-May-23 00:19N 51°09' E 001°53'3 7.1
2017-May-22 23:50N 51°08' E 001°48'2 7.5
2017-May-22 23:30N 51°07' E 001°44'4 7.6
2017-May-22 23:00N 51°06' E 001°39'4 7.6
2017-May-22 22:30N 51°05' E 001°33'4 7.3
2017-May-22 22:00N 51°04' E 001°27'26 6.8
2017-May-22 18:15N 50°50' E 000°54'2 5.6
2017-May-22 17:57N 50°48' E 000°52'3 5.7
2017-May-22 17:30N 50°47' E 000°48'3 5.8
2017-May-22 17:01N 50°45' E 000°45'3 5.7
2017-May-22 16:30N 50°44' E 000°41'3 5.6
2017-May-22 16:01N 50°42' E 000°37'3 5.4
2017-May-22 15:30N 50°41' E 000°34'2 4.8
2017-May-22 15:00N 50°40' E 000°30'2 4.8
2017-May-22 14:30N 50°40' E 000°27'9 4.3
2017-May-22 12:32N 50°38' E 000°13'0 3.9
2017-May-22 12:30N 50°38' E 000°13'2 3.9
2017-May-22 12:00N 50°37' E 000°10'2 4.3
2017-May-22 11:30N 50°37' E 000°07'2 4.3
2017-May-22 11:01N 50°37' E 000°04'2 4.3
2017-May-22 10:31N 50°36' E 000°00'2 4.6
2017-May-22 09:59N 50°36' W 000°03'2 4.7
2017-May-22 09:30N 50°35' W 000°07'2 4.6
2017-May-22 09:01N 50°35' W 000°10'2 4.9
2017-May-22 08:30N 50°35' W 000°14'3 5.1
2017-May-22 07:59N 50°35' W 000°18'3 5.5
2017-May-22 07:29N 50°34' W 000°23'3 5.9
2017-May-22 06:59N 50°34' W 000°27'3 6.0
2017-May-22 06:30N 50°34' W 000°32'3 6.1
2017-May-22 06:00N 50°34' W 000°37'44 4.6
2017-May-21 20:21N 50°36' W 001°46'1 4.0
2017-May-21 20:00N 50°37' W 001°48'2 4.2
2017-May-21 19:31N 50°38' W 001°51'2 4.6
2017-May-21 19:01N 50°39' W 001°54'3 5.1
2017-May-21 18:29N 50°41' W 001°57'2 3.6
2017-May-21 17:54N 50°42' W 001°59'0 0.9
2017-May-21 17:30N 50°43' W 001°59'0 0.0
2017-May-21 16:58N 50°43' W 001°59'0 0.0
2017-May-21 16:30N 50°43' W 001°59'  
Track history (hours):
 
Tides and Currents Weather Stations Pressure Air Temp Water Temp Dewpoint Dewpoint Depression Visibility Wind Speed Wind Dir Waves Ship Positions

Nao Victoria

Last reported at 2017-May-29 11:31 UTC. Time now 2017-May-29 11:29 UTC.
Position N 51°14' E 002°55'.

Length 25 m; draft 3.2 m.

Type: Sailing vessel. MMSI: 224123770.

Date/timePositionNaut miles runAvg speedWind from/ knotsBaromVisibWave heightAir tempDewpointWater temp
2017-May-29 11:31N 51°14' E 002°55'0 0.0
2017-May-29 11:01N 51°14' E 002°55'0 0.0
2017-May-29 10:31N 51°14' E 002°55'  
2017-May-23 11:51N 51°14' E 002°55'0 0.2
2017-May-23 11:22N 51°14' E 002°55'0 0.4
2017-May-23 10:44N 51°14' E 002°55'0 0.8
2017-May-23 10:29N 51°14' E 002°55'2 4.3
2017-May-23 09:59N 51°16' E 002°53'2 5.0
2017-May-23 09:30N 51°18' E 002°51'2 4.5
2017-May-23 09:00N 51°20' E 002°49'3 5.9
2017-May-23 08:30N 51°20' E 002°45'3 5.6
2017-May-23 08:00N 51°21' E 002°40'3 5.1
2017-May-23 07:30N 51°21' E 002°36'1 2.3
2017-May-23 06:58N 51°21' E 002°34'0 0.8
2017-May-23 06:29N 51°21' E 002°34'2 3.3
2017-May-23 06:00N 51°22' E 002°31'2 3.3
2017-May-23 05:30N 51°21' E 002°29'2 3.4
2017-May-23 04:59N 51°21' E 002°26'2 3.6
2017-May-23 04:30N 51°20' E 002°24'2 4.0
2017-May-23 04:00N 51°19' E 002°21'2 4.3
2017-May-23 03:30N 51°17' E 002°18'3 4.4
2017-May-23 02:55N 51°16' E 002°15'4 5.4
2017-May-23 02:05N 51°14' E 002°09'1 6.1
2017-May-23 02:00N 51°13' E 002°08'3 6.0
2017-May-23 01:28N 51°12' E 002°04'3 6.0
2017-May-23 01:00N 51°10' E 002°00'5 6.7
2017-May-23 00:19N 51°09' E 001°53'3 7.1
2017-May-22 23:50N 51°08' E 001°48'2 7.5
2017-May-22 23:30N 51°07' E 001°44'4 7.6
2017-May-22 23:00N 51°06' E 001°39'4 7.6
2017-May-22 22:30N 51°05' E 001°33'4 7.3
2017-May-22 22:00N 51°04' E 001°27'26 6.8
2017-May-22 18:15N 50°50' E 000°54'2 5.6
2017-May-22 17:57N 50°48' E 000°52'3 5.7
2017-May-22 17:30N 50°47' E 000°48'3 5.8
2017-May-22 17:01N 50°45' E 000°45'3 5.7
2017-May-22 16:30N 50°44' E 000°41'3 5.6
2017-May-22 16:01N 50°42' E 000°37'3 5.4
2017-May-22 15:30N 50°41' E 000°34'2 4.8
2017-May-22 15:00N 50°40' E 000°30'2 4.8
2017-May-22 14:30N 50°40' E 000°27'9 4.3
2017-May-22 12:32N 50°38' E 000°13'0 3.9
2017-May-22 12:30N 50°38' E 000°13'2 3.9
2017-May-22 12:00N 50°37' E 000°10'2 4.3
2017-May-22 11:30N 50°37' E 000°07'2 4.3
2017-May-22 11:01N 50°37' E 000°04'2 4.3
2017-May-22 10:31N 50°36' E 000°00'2 4.6
2017-May-22 09:59N 50°36' W 000°03'2 4.7
2017-May-22 09:30N 50°35' W 000°07'2 4.6
2017-May-22 09:01N 50°35' W 000°10'2 4.9
2017-May-22 08:30N 50°35' W 000°14'3 5.1
2017-May-22 07:59N 50°35' W 000°18'3 5.5
2017-May-22 07:29N 50°34' W 000°23'3 5.9
2017-May-22 06:59N 50°34' W 000°27'3 6.0
2017-May-22 06:30N 50°34' W 000°32'3 6.1
2017-May-22 06:00N 50°34' W 000°37'44 4.6
2017-May-21 20:21N 50°36' W 001°46'1 4.0
2017-May-21 20:00N 50°37' W 001°48'2 4.2
2017-May-21 19:31N 50°38' W 001°51'2 4.6
2017-May-21 19:01N 50°39' W 001°54'3 5.1
2017-May-21 18:29N 50°41' W 001°57'2 3.6
2017-May-21 17:54N 50°42' W 001°59'0 0.9
2017-May-21 17:30N 50°43' W 001°59'0 0.0
2017-May-21 16:58N 50°43' W 001°59'0 0.0
2017-May-21 16:30N 50°43' W 001°59'  

Dump ship's entire track history